Time;durP1;ratioP1;P1;durP2;ratioP2;P2;SDS_P1;SDS_P2;PMS_P1;PMS_P2;Temp;Humidity;BMP_temperature;BMP_pressure;BME280_temperature;BME280_humidity;BME280_pressure;Samples;Min_cycle;Max_cycle;Signal;HPM_P1;HPM_P2
2023/08/25 00:01:23;;;;;;;9.00;8.40;;;23.50;36.50;;;;;;5017439;28;20180;-77
2023/08/25 00:03:48;;;;;;;8.47;8.07;;;23.40;35.70;;;;;;5018557;28;20185;-77
2023/08/25 00:06:14;;;;;;;8.47;8.00;;;23.50;37.20;;;;;;5019220;28;20197;-78
2023/08/25 00:08:40;;;;;;;8.93;8.40;;;23.50;37.10;;;;;;5019016;28;20246;-76
2023/08/25 00:11:05;;;;;;;8.70;8.10;;;23.50;36.50;;;;;;5018859;28;20177;-77
2023/08/25 00:13:35;;;;;;;8.43;7.90;;;23.50;36.70;;;;;;5018410;28;20161;-77
2023/08/25 00:16:00;;;;;;;8.87;8.40;;;23.60;36.80;;;;;;5021228;28;20169;-78
2023/08/25 00:18:27;;;;;;;9.07;8.13;;;23.60;36.00;;;;;;5019611;28;20442;-76
2023/08/25 00:20:52;;;;;;;8.10;7.70;;;23.60;36.50;;;;;;5021075;28;20174;-76
2023/08/25 00:23:18;;;;;;;8.63;8.23;;;23.60;36.60;;;;;;5017810;28;20443;-76
2023/08/25 00:25:44;;;;;;;8.80;8.30;;;23.50;35.40;;;;;;5016394;28;20183;-77
2023/08/25 00:28:10;;;;;;;8.23;7.70;;;23.50;35.80;;;;;;5015489;28;20288;-77
2023/08/25 00:30:36;;;;;;;8.60;7.80;;;23.50;36.10;;;;;;5016124;28;20986;-78
2023/08/25 00:33:01;;;;;;;7.63;7.23;;;23.60;35.80;;;;;;5016224;28;20181;-78
2023/08/25 00:35:27;;;;;;;7.33;7.03;;;23.60;35.00;;;;;;5016017;28;20247;-78
2023/08/25 00:37:52;;;;;;;8.97;8.33;;;23.60;35.50;;;;;;5015508;28;20666;-77
2023/08/25 00:40:18;;;;;;;8.40;8.10;;;23.60;34.40;;;;;;5014357;28;20177;-78
2023/08/25 00:42:43;;;;;;;8.70;8.30;;;23.60;34.90;;;;;;5015540;28;20563;-77
2023/08/25 00:45:10;;;;;;;7.80;7.50;;;23.60;34.60;;;;;;5016062;28;20255;-77
2023/08/25 00:47:36;;;;;;;8.43;7.70;;;23.60;34.80;;;;;;5015586;28;20278;-77
2023/08/25 00:50:03;;;;;;;8.57;8.17;;;23.60;35.10;;;;;;5015589;28;20550;-77
2023/08/25 00:52:29;;;;;;;8.07;7.67;;;23.60;35.00;;;;;;5014368;28;20424;-77
2023/08/25 00:54:56;;;;;;;7.60;7.30;;;23.60;35.60;;;;;;5015406;28;20424;-77
2023/08/25 00:57:22;;;;;;;8.67;8.27;;;23.60;35.30;;;;;;5015634;28;20447;-78
2023/08/25 00:59:50;;;;;;;8.73;8.30;;;23.60;34.70;;;;;;5015159;28;20420;-78
2023/08/25 01:02:15;;;;;;;7.90;7.60;;;23.70;35.70;;;;;;5015483;28;20500;-77
2023/08/25 01:04:41;;;;;;;8.00;7.70;;;23.70;35.70;;;;;;5015018;28;20949;-77
2023/08/25 01:07:06;;;;;;;9.00;8.60;;;23.70;35.60;;;;;;5014805;28;20203;-76
2023/08/25 01:09:33;;;;;;;8.30;7.90;;;23.70;34.90;;;;;;5014912;28;20216;-76
2023/08/25 01:12:04;;;;;;;7.40;7.10;;;23.70;35.00;;;;;;5015127;28;20169;-78
2023/08/25 01:14:41;;;;;;;8.20;7.70;;;23.70;35.40;;;;;;5014052;28;20413;-77
2023/08/25 01:17:36;;;;;;;8.30;7.90;;;23.70;35.40;;;;;;5014801;28;20459;-77
2023/08/25 01:20:06;;;;;;;8.17;7.80;;;23.70;34.70;;;;;;5013603;28;20789;-76
2023/08/25 01:23:03;;;;;;;8.10;7.70;;;23.70;35.10;;;;;;5015218;28;20937;-76
2023/08/25 01:25:31;;;;;;;8.23;7.93;;;23.70;34.30;;;;;;5014788;28;20412;-76
2023/08/25 01:28:03;;;;;;;8.17;7.80;;;23.80;34.40;;;;;;5014535;28;20440;-76
2023/08/25 01:30:30;;;;;;;8.10;7.80;;;23.80;34.20;;;;;;5014847;28;20423;-78
2023/08/25 01:32:56;;;;;;;8.10;7.80;;;23.80;34.20;;;;;;5014822;28;20412;-76
2023/08/25 01:35:34;;;;;;;8.50;8.00;;;23.80;33.80;;;;;;5015410;28;20409;-78
2023/08/25 01:38:06;;;;;;;9.20;8.80;;;23.80;33.30;;;;;;5015488;28;20424;-77
2023/08/25 01:40:38;;;;;;;8.60;8.20;;;23.80;33.70;;;;;;5016317;28;20415;-77
2023/08/25 01:43:09;;;;;;;8.03;7.60;;;23.80;34.30;;;;;;5020117;28;20405;-77
2023/08/25 01:45:34;;;;;;;9.00;8.37;;;23.80;34.30;;;;;;5015029;28;20455;-77
2023/08/25 01:48:02;;;;;;;8.73;8.10;;;23.80;33.20;;;;;;5015024;28;20500;-78
2023/08/25 01:50:28;;;;;;;8.80;8.20;;;23.80;33.30;;;;;;5015158;28;20222;-78
2023/08/25 01:52:53;;;;;;;8.80;8.10;;;23.80;34.10;;;;;;5015061;28;20499;-78
2023/08/25 01:55:19;;;;;;;8.60;8.10;;;23.80;33.90;;;;;;5014403;28;20420;-78
2023/08/25 01:57:44;;;;;;;8.87;8.47;;;23.80;33.50;;;;;;5014297;28;20605;-78
2023/08/25 02:00:11;;;;;;;8.70;8.30;;;23.80;33.60;;;;;;5014450;28;20173;-77
2023/08/25 02:02:36;;;;;;;9.90;9.30;;;23.80;33.70;;;;;;5013503;28;20188;-77
2023/08/25 02:05:05;;;;;;;8.27;7.97;;;23.80;33.50;;;;;;5013980;28;20899;-77
2023/08/25 02:07:31;;;;;;;8.87;8.47;;;23.80;33.20;;;;;;5014000;28;20232;-77
2023/08/25 02:09:56;;;;;;;9.30;8.70;;;23.70;32.00;;;;;;5013714;28;20491;-77
2023/08/25 02:12:22;;;;;;;9.47;8.97;;;23.70;31.40;;;;;;5014017;28;20580;-78
2023/08/25 02:14:47;;;;;;;9.03;8.53;;;23.60;31.40;;;;;;5014183;28;20184;-78
2023/08/25 02:17:15;;;;;;;9.03;8.53;;;23.60;33.00;;;;;;5012381;28;20205;-77
2023/08/25 02:19:41;;;;;;;8.27;7.97;;;23.60;33.00;;;;;;5012092;28;20176;-77
2023/08/25 02:22:07;;;;;;;9.40;8.90;;;23.70;33.10;;;;;;5013982;28;20408;-78
2023/08/25 02:24:32;;;;;;;10.40;9.60;;;23.70;32.00;;;;;;5013935;28;20244;-78
2023/08/25 02:27:00;;;;;;;8.90;8.50;;;23.70;33.10;;;;;;5013691;28;20522;-77
2023/08/25 02:29:31;;;;;;;9.80;9.20;;;23.70;32.50;;;;;;5012023;28;20208;-77
2023/08/25 02:31:56;;;;;;;9.53;9.00;;;23.70;33.10;;;;;;5013424;28;20494;-77
2023/08/25 02:34:22;;;;;;;10.00;9.40;;;23.60;31.70;;;;;;5013578;28;20443;-77
2023/08/25 02:36:48;;;;;;;9.90;9.30;;;23.60;32.10;;;;;;5013397;28;20668;-78
2023/08/25 02:39:14;;;;;;;9.67;9.23;;;23.50;32.50;;;;;;5013153;28;20682;-78
2023/08/25 02:41:40;;;;;;;9.40;9.00;;;23.50;32.90;;;;;;5013567;28;20166;-78
2023/08/25 02:44:05;;;;;;;9.87;9.23;;;23.50;32.90;;;;;;5013463;28;20412;-78
2023/08/25 02:46:33;;;;;;;9.50;9.10;;;23.50;32.90;;;;;;5012127;28;20689;-77
2023/08/25 02:48:59;;;;;;;9.80;9.40;;;23.60;33.00;;;;;;5013223;28;20287;-78
2023/08/25 02:51:24;;;;;;;9.37;8.97;;;23.50;31.90;;;;;;5013264;28;20439;-78
2023/08/25 02:53:50;;;;;;;10.40;9.60;;;23.20;32.70;;;;;;5013044;28;20602;-77
2023/08/25 02:56:15;;;;;;;10.37;9.87;;;23.20;32.70;;;;;;5011661;28;20197;-78
2023/08/25 02:58:41;;;;;;;9.90;9.50;;;23.20;32.70;;;;;;5011893;28;20264;-78
2023/08/25 03:01:15;;;;;;;10.70;10.20;;;23.10;32.60;;;;;;5012975;28;20185;-77
2023/08/25 03:03:41;;;;;;;10.10;9.70;;;23.10;32.70;;;;;;5013023;28;20177;-76
2023/08/25 03:06:06;;;;;;;10.53;10.13;;;23.10;33.20;;;;;;5011332;28;20495;-77
2023/08/25 03:08:32;;;;;;;10.80;10.30;;;23.00;33.50;;;;;;5012537;28;20193;-76
2023/08/25 03:11:02;;;;;;;11.50;10.77;;;23.00;34.00;;;;;;5012826;28;20196;-76
2023/08/25 03:13:29;;;;;;;10.70;10.30;;;22.90;34.00;;;;;;5011875;28;20177;-76
2023/08/25 03:15:54;;;;;;;11.30;10.80;;;22.90;34.00;;;;;;5012390;28;20500;-76
2023/08/25 03:18:20;;;;;;;11.17;10.57;;;22.90;34.60;;;;;;5012295;28;20511;-76
2023/08/25 03:20:53;;;;;;;10.90;10.40;;;23.00;33.60;;;;;;5012515;28;20574;-77
2023/08/25 03:23:18;;;;;;;11.30;10.70;;;22.90;33.50;;;;;;5012823;28;20179;-78
2023/08/25 03:25:44;;;;;;;11.37;10.80;;;22.90;33.90;;;;;;5012560;28;20420;-76
2023/08/25 03:28:10;;;;;;;10.87;10.47;;;22.90;33.40;;;;;;5012442;28;20256;-79
2023/08/25 03:30:37;;;;;;;11.13;10.63;;;22.90;33.20;;;;;;5012869;28;20435;-77
2023/08/25 03:33:05;;;;;;;10.40;9.90;;;23.00;33.40;;;;;;5011515;28;20185;-77
2023/08/25 03:35:38;;;;;;;10.33;9.77;;;23.00;32.50;;;;;;5011471;28;20438;-77
2023/08/25 03:38:08;;;;;;;10.70;10.20;;;23.00;32.50;;;;;;5012593;28;20586;-78
2023/08/25 03:40:34;;;;;;;11.23;10.73;;;22.90;32.40;;;;;;5011447;28;20914;-77
2023/08/25 03:43:05;;;;;;;11.43;10.67;;;22.90;32.40;;;;;;5011213;28;20461;-77
2023/08/25 03:45:30;;;;;;;11.20;10.50;;;22.90;33.20;;;;;;5012689;28;20165;-76
2023/08/25 03:47:56;;;;;;;10.00;9.60;;;22.90;32.40;;;;;;5011143;28;20961;-77
2023/08/25 03:50:22;;;;;;;10.60;9.90;;;23.00;32.50;;;;;;5011416;28;20355;-78
2023/08/25 03:52:49;;;;;;;10.40;9.90;;;22.90;32.40;;;;;;5012460;28;20197;-78
2023/08/25 03:55:15;;;;;;;10.57;10.07;;;22.90;32.40;;;;;;5012410;28;20408;-77
2023/08/25 03:57:41;;;;;;;10.70;10.20;;;23.00;32.50;;;;;;5012157;28;20439;-77
2023/08/25 04:00:07;;;;;;;10.00;9.50;;;22.90;32.40;;;;;;5012137;28;20231;-77
2023/08/25 04:02:33;;;;;;;11.00;10.60;;;23.00;32.50;;;;;;5012142;28;20220;-77
2023/08/25 04:04:58;;;;;;;11.50;10.80;;;23.10;32.60;;;;;;5024461;28;20805;-76
2023/08/25 04:07:24;;;;;;;12.00;11.10;;;23.00;32.50;;;;;;5031827;28;20571;-76
2023/08/25 04:09:50;;;;;;;11.53;10.73;;;23.00;32.50;;;;;;5030178;28;20258;-77
2023/08/25 04:12:15;;;;;;;13.40;12.80;;;23.00;32.50;;;;;;5031665;28;20230;-78
2023/08/25 04:14:41;;;;;;;11.13;10.37;;;22.70;33.70;;;;;;5031938;28;20627;-77
2023/08/25 04:17:06;;;;;;;10.27;9.53;;;22.70;34.20;;;;;;5031539;28;20557;-77
2023/08/25 04:19:32;;;;;;;10.60;10.10;;;22.60;34.50;;;;;;5031548;28;20256;-76
2023/08/25 04:21:59;;;;;;;11.00;10.50;;;22.60;34.40;;;;;;5032304;28;20583;-77
2023/08/25 04:24:24;;;;;;;10.57;10.07;;;22.60;34.60;;;;;;5032132;28;20669;-77
2023/08/25 04:26:50;;;;;;;10.70;10.20;;;22.60;35.00;;;;;;5034697;28;20431;-77
2023/08/25 04:29:15;;;;;;;11.40;10.47;;;22.50;34.70;;;;;;5035948;28;20667;-77
2023/08/25 04:31:41;;;;;;;10.53;10.03;;;22.50;34.70;;;;;;5035684;28;20228;-77
2023/08/25 04:34:06;;;;;;;10.20;9.70;;;22.40;34.70;;;;;;5034338;28;20251;-77
2023/08/25 04:36:36;;;;;;;10.70;10.03;;;22.40;35.10;;;;;;5035904;28;20675;-76
2023/08/25 04:39:02;;;;;;;10.10;9.50;;;22.30;35.00;;;;;;5035467;28;20208;-77
2023/08/25 04:41:28;;;;;;;9.87;9.40;;;22.30;35.20;;;;;;5035777;28;20431;-77
2023/08/25 04:43:53;;;;;;;9.90;9.30;;;22.40;35.20;;;;;;5034271;28;20427;-76
2023/08/25 04:46:19;;;;;;;9.23;8.70;;;22.50;34.70;;;;;;5035188;28;20699;-76
2023/08/25 04:48:46;;;;;;;10.77;10.00;;;22.50;34.30;;;;;;5035191;28;20250;-76
2023/08/25 04:51:12;;;;;;;10.03;9.53;;;22.50;34.20;;;;;;5035438;28;20160;-76
2023/08/25 04:53:37;;;;;;;9.53;9.00;;;22.50;34.20;;;;;;5035339;28;20414;-76
2023/08/25 04:56:03;;;;;;;11.23;10.50;;;22.50;34.20;;;;;;5034273;28;20427;-77
2023/08/25 04:58:29;;;;;;;9.33;8.80;;;22.40;35.00;;;;;;5035431;28;20654;-77
2023/08/25 05:00:54;;;;;;;10.63;9.93;;;22.40;34.30;;;;;;5036521;28;20188;-77
2023/08/25 05:03:20;;;;;;;11.13;10.63;;;22.40;34.20;;;;;;5034354;28;20180;-77
2023/08/25 05:05:45;;;;;;;10.47;9.63;;;22.40;34.30;;;;;;5034994;28;20173;-77
2023/08/25 05:08:11;;;;;;;9.97;9.57;;;22.40;34.40;;;;;;5034762;28;20181;-77
2023/08/25 05:10:36;;;;;;;11.50;10.30;;;22.40;34.40;;;;;;5034966;28;20169;-77
2023/08/25 05:13:03;;;;;;;10.27;9.43;;;22.40;34.20;;;;;;5034834;28;20203;-77
2023/08/25 05:15:28;;;;;;;10.57;9.97;;;22.50;34.30;;;;;;5035435;28;20650;-78
2023/08/25 05:17:54;;;;;;;10.37;9.67;;;22.50;33.70;;;;;;5034601;28;20458;-78
2023/08/25 05:20:20;;;;;;;11.13;10.30;;;22.60;33.70;;;;;;5035063;28;20415;-78
2023/08/25 05:22:47;;;;;;;11.40;10.80;;;22.70;33.20;;;;;;5034984;28;20173;-78
2023/08/25 05:25:12;;;;;;;11.23;10.43;;;22.70;34.00;;;;;;5040003;28;20443;-80
2023/08/25 05:27:38;;;;;;;10.80;10.30;;;22.80;34.20;;;;;;5036425;28;20439;-78
2023/08/25 05:30:07;;;;;;;9.80;9.40;;;22.90;34.00;;;;;;5035298;28;20205;-77
2023/08/25 05:32:33;;;;;;;10.30;9.90;;;23.10;33.50;;;;;;5034285;28;20179;-77
2023/08/25 05:34:58;;;;;;;10.97;10.33;;;23.00;32.50;;;;;;5033013;28;20914;-77
2023/08/25 05:37:24;;;;;;;10.57;10.10;;;23.10;32.60;;;;;;5033458;28;20200;-77
2023/08/25 05:39:49;;;;;;;11.20;10.70;;;23.20;32.70;;;;;;5032454;28;20176;-76
2023/08/25 05:42:15;;;;;;;11.20;10.70;;;23.30;32.70;;;;;;5034299;28;20180;-77
2023/08/25 05:44:41;;;;;;;11.27;10.67;;;23.40;32.90;;;;;;5032764;28;20185;-76
2023/08/25 05:47:07;;;;;;;11.47;10.87;;;23.30;31.30;;;;;;5033843;28;20452;-77
2023/08/25 05:49:32;;;;;;;12.37;11.70;;;23.40;31.30;;;;;;5034150;28;20204;-77
2023/08/25 05:51:58;;;;;;;11.63;10.83;;;23.40;31.20;;;;;;5034340;28;20169;-78
2023/08/25 05:54:23;;;;;;;11.63;11.03;;;23.50;32.10;;;;;;5034930;28;20235;-78
2023/08/25 05:56:49;;;;;;;12.30;11.60;;;23.50;32.50;;;;;;5033393;28;20550;-78
2023/08/25 05:59:14;;;;;;;11.77;11.17;;;23.60;31.00;;;;;;5034376;28;20317;-77
2023/08/25 06:01:41;;;;;;;10.47;9.90;;;23.60;30.70;;;;;;5033180;28;20622;-78
2023/08/25 06:04:07;;;;;;;11.60;11.10;;;23.60;30.60;;;;;;5034885;28;20446;-78
2023/08/25 06:06:33;;;;;;;11.97;11.40;;;23.60;30.80;;;;;;5034235;28;20192;-78
2023/08/25 06:08:59;;;;;;;11.60;11.00;;;23.70;30.80;;;;;;5033719;28;20196;-77
2023/08/25 06:11:24;;;;;;;10.93;10.33;;;23.70;31.80;;;;;;5034385;28;20465;-78
2023/08/25 06:13:50;;;;;;;10.97;10.00;;;23.60;31.50;;;;;;5034191;28;20179;-78
2023/08/25 06:16:16;;;;;;;11.03;10.50;;;23.80;31.30;;;;;;5033685;28;20432;-78
2023/08/25 06:18:42;;;;;;;11.40;10.70;;;23.80;31.10;;;;;;5033930;28;20196;-76
2023/08/25 06:21:09;;;;;;;11.20;10.50;;;23.80;31.50;;;;;;5033842;28;20188;-77
2023/08/25 06:23:34;;;;;;;12.20;11.40;;;23.70;32.00;;;;;;5035947;28;20431;-77
2023/08/25 06:26:00;;;;;;;12.67;12.03;;;23.50;33.00;;;;;;5036727;28;20446;-77
2023/08/25 06:28:26;;;;;;;12.47;11.87;;;23.40;32.80;;;;;;5033322;28;20231;-77
2023/08/25 06:30:51;;;;;;;11.80;11.23;;;23.40;32.80;;;;;;5032557;28;20212;-76
2023/08/25 06:33:17;;;;;;;11.17;10.43;;;23.40;32.50;;;;;;5032584;28;20177;-76
2023/08/25 06:35:43;;;;;;;10.53;10.13;;;23.40;32.00;;;;;;5033215;28;20184;-76
2023/08/25 06:38:08;;;;;;;11.47;10.77;;;23.30;32.10;;;;;;5034936;28;20415;-76
2023/08/25 06:40:34;;;;;;;11.80;10.87;;;23.30;32.80;;;;;;5033329;28;20176;-77
2023/08/25 06:43:03;;;;;;;10.70;10.07;;;23.20;32.70;;;;;;5033341;28;20176;-77
2023/08/25 06:45:30;;;;;;;11.50;10.83;;;23.20;32.70;;;;;;5033404;28;20279;-77
2023/08/25 06:47:56;;;;;;;11.37;10.70;;;23.20;33.40;;;;;;5035166;28;20450;-77
2023/08/25 06:50:22;;;;;;;11.80;11.10;;;23.20;34.10;;;;;;5035022;28;20972;-77
2023/08/25 06:52:48;;;;;;;11.50;10.80;;;23.20;33.80;;;;;;5034109;28;20419;-78
2023/08/25 06:55:16;;;;;;;11.60;11.00;;;23.30;33.50;;;;;;5033928;28;20447;-76
2023/08/25 06:57:41;;;;;;;10.97;10.40;;;23.30;33.20;;;;;;5043845;28;20191;-78
2023/08/25 07:00:08;;;;;;;10.77;10.27;;;23.20;34.30;;;;;;5046954;28;20427;-78
2023/08/25 07:02:33;;;;;;;10.77;10.27;;;23.10;37.20;;;;;;5045918;28;20187;-76
2023/08/25 07:04:59;;;;;;;10.93;10.43;;;23.10;36.40;;;;;;5041657;28;20514;-77
2023/08/25 07:07:27;;;;;;;11.03;10.20;;;23.00;36.60;;;;;;5039524;28;20203;-78
2023/08/25 07:09:54;;;;;;;10.60;10.00;;;22.90;38.40;;;;;;5034663;28;20504;-77
2023/08/25 07:12:19;;;;;;;10.77;9.97;;;22.80;38.40;;;;;;5035803;28;20407;-78
2023/08/25 07:14:45;;;;;;;10.07;9.67;;;22.80;38.70;;;;;;5036293;28;20484;-78
2023/08/25 07:17:10;;;;;;;10.80;10.20;;;22.80;38.90;;;;;;5037772;28;20216;-78
2023/08/25 07:19:36;;;;;;;10.90;10.20;;;22.70;41.00;;;;;;5035234;28;20247;-78
2023/08/25 07:22:02;;;;;;;11.20;10.40;;;22.70;40.30;;;;;;5028276;28;20193;-78
2023/08/25 07:24:28;;;;;;;11.00;10.40;;;22.60;40.50;;;;;;5028771;28;20188;-79
2023/08/25 07:26:53;;;;;;;10.67;10.17;;;22.60;41.80;;;;;;5037232;28;20979;-78
2023/08/25 07:29:19;;;;;;;10.63;9.93;;;22.40;44.70;;;;;;5037614;28;20204;-79
2023/08/25 07:31:44;;;;;;;9.73;9.33;;;22.20;46.40;;;;;;5035114;28;20548;-78
2023/08/25 07:34:10;;;;;;;9.47;8.90;;;22.00;45.70;;;;;;5033719;28;20177;-77
2023/08/25 07:36:35;;;;;;;10.80;10.20;;;22.00;46.40;;;;;;5036887;28;20220;-78
2023/08/25 07:39:01;;;;;;;9.97;9.47;;;22.00;47.90;;;;;;5036330;28;20180;-78
2023/08/25 07:41:27;;;;;;;9.80;9.30;;;21.90;48.80;;;;;;5035292;28;20189;-78
2023/08/25 07:43:52;;;;;;;10.13;9.43;;;21.80;47.20;;;;;;5040147;28;20211;-79
2023/08/25 07:46:18;;;;;;;9.60;9.20;;;21.70;47.20;;;;;;5037129;28;20719;-78
2023/08/25 07:48:45;;;;;;;9.80;9.30;;;21.80;48.20;;;;;;5032715;28;20196;-79
2023/08/25 07:51:10;;;;;;;10.00;9.37;;;21.90;47.90;;;;;;5035709;28;20169;-77
2023/08/25 07:53:36;;;;;;;10.00;9.60;;;22.10;47.70;;;;;;5035959;28;20923;-78
2023/08/25 07:56:03;;;;;;;9.70;9.10;;;21.90;47.10;;;;;;5033607;28;20172;-77
2023/08/25 07:58:28;;;;;;;10.57;9.77;;;21.90;47.70;;;;;;5033012;28;20251;-76
2023/08/25 08:00:54;;;;;;;8.80;8.13;;;21.70;48.60;;;;;;5034521;28;20450;-79
2023/08/25 08:03:20;;;;;;;9.70;9.10;;;21.80;49.20;;;;;;5034411;28;20184;-77
2023/08/25 08:05:45;;;;;;;9.20;8.60;;;21.90;49.40;;;;;;5038389;28;20408;-78
2023/08/25 08:08:11;;;;;;;9.03;8.47;;;22.00;49.40;;;;;;5037217;28;20184;-78
2023/08/25 08:10:37;;;;;;;10.23;9.63;;;22.10;49.10;;;;;;5038110;28;20236;-80
2023/08/25 08:13:03;;;;;;;9.63;9.00;;;22.10;48.00;;;;;;5037214;28;20743;-78
2023/08/25 08:15:30;;;;;;;9.97;9.30;;;22.10;47.30;;;;;;5037622;28;20435;-78
2023/08/25 08:17:56;;;;;;;10.03;9.53;;;22.00;46.30;;;;;;5036377;28;20208;-78
2023/08/25 08:20:22;;;;;;;9.80;9.20;;;21.90;46.80;;;;;;5036739;28;20465;-79
2023/08/25 08:22:48;;;;;;;9.83;9.33;;;22.00;47.70;;;;;;5037451;28;20786;-77
2023/08/25 08:25:14;;;;;;;11.07;10.20;;;21.70;48.10;;;;;;5039371;28;20423;-78
2023/08/25 08:27:41;;;;;;;10.60;9.83;;;21.60;49.40;;;;;;5036169;28;20235;-78
2023/08/25 08:30:11;;;;;;;9.90;9.40;;;21.50;51.80;;;;;;5034381;28;20467;-77
2023/08/25 08:32:38;;;;;;;11.07;10.03;;;21.50;51.80;;;;;;5036999;28;20410;-78
2023/08/25 08:35:10;;;;;;;8.90;8.40;;;21.40;52.60;;;;;;5036767;28;20431;-78
2023/08/25 08:37:36;;;;;;;10.23;9.53;;;21.30;52.20;;;;;;5038113;28;20433;-79
2023/08/25 08:40:05;;;;;;;12.80;11.63;;;21.20;51.50;;;;;;5038325;28;20404;-79
2023/08/25 08:42:33;;;;;;;12.07;11.17;;;21.30;53.30;;;;;;5037992;28;20425;-79
2023/08/25 08:45:07;;;;;;;9.57;8.83;;;21.40;53.60;;;;;;5037274;28;20422;-78
2023/08/25 08:47:34;;;;;;;9.67;9.00;;;21.60;53.80;;;;;;5038362;28;20427;-79
2023/08/25 08:50:01;;;;;;;8.60;8.00;;;21.70;51.90;;;;;;5038942;28;20459;-80
2023/08/25 08:52:30;;;;;;;8.13;7.57;;;21.80;52.00;;;;;;5037408;28;20407;-78
2023/08/25 08:54:59;;;;;;;9.13;8.53;;;21.90;51.10;;;;;;5036520;28;20443;-78
2023/08/25 08:57:28;;;;;;;8.83;8.20;;;22.00;50.80;;;;;;5035902;28;20451;-77
2023/08/25 08:59:58;;;;;;;9.30;8.70;;;22.10;50.50;;;;;;5035268;28;20945;-78
2023/08/25 09:02:27;;;;;;;8.60;8.03;;;22.10;49.80;;;;;;5036482;28;20450;-78
2023/08/25 09:04:53;;;;;;;9.13;8.73;;;22.20;49.60;;;;;;5036270;28;20420;-78
2023/08/25 09:07:20;;;;;;;9.70;9.10;;;22.20;49.70;;;;;;5035682;28;20485;-78
2023/08/25 09:09:46;;;;;;;10.57;9.87;;;22.30;49.90;;;;;;5035593;28;20455;-78
2023/08/25 09:12:15;;;;;;;10.47;9.90;;;22.20;49.20;;;;;;5035292;28;20423;-78
2023/08/25 09:14:41;;;;;;;10.50;10.00;;;22.00;47.50;;;;;;5036707;28;20423;-78
2023/08/25 09:17:06;;;;;;;10.80;10.20;;;22.00;47.70;;;;;;5037326;28;20455;-79
2023/08/25 09:19:33;;;;;;;10.47;9.97;;;21.80;47.00;;;;;;5037912;28;20929;-79
2023/08/25 09:22:02;;;;;;;9.50;9.00;;;21.60;48.90;;;;;;5036950;28;20177;-79
2023/08/25 09:24:29;;;;;;;10.47;9.80;;;21.60;50.40;;;;;;5036907;28;20904;-79
2023/08/25 09:26:55;;;;;;;10.10;9.60;;;21.50;47.80;;;;;;5038633;28;20801;-79
2023/08/25 09:29:22;;;;;;;10.37;9.57;;;21.40;48.10;;;;;;5038839;28;20462;-77
2023/08/25 09:31:48;;;;;;;10.00;9.40;;;21.50;49.70;;;;;;5038981;28;20260;-79
2023/08/25 09:34:14;;;;;;;9.20;8.50;;;21.50;48.00;;;;;;5038710;28;20944;-79
2023/08/25 09:36:52;;;;;;;10.20;9.40;;;21.60;48.80;;;;;;5037179;28;20198;-79
2023/08/25 09:39:18;;;;;;;9.07;8.57;;;21.60;48.00;;;;;;5034422;28;20849;-79
2023/08/25 09:41:44;;;;;;;9.33;8.83;;;21.70;50.00;;;;;;5036913;28;20573;-79
2023/08/25 09:44:10;;;;;;;9.10;8.40;;;21.70;50.50;;;;;;5037292;28;20433;-79
2023/08/25 09:46:36;;;;;;;8.80;8.30;;;21.70;49.00;;;;;;5040240;28;20253;-78
2023/08/25 09:49:05;;;;;;;9.50;9.00;;;21.80;47.10;;;;;;5037784;28;21270;-79
2023/08/25 09:51:45;;;;;;;9.20;8.50;;;21.70;48.10;;;;;;5037352;28;20173;-79
2023/08/25 09:54:16;;;;;;;9.43;8.93;;;21.70;47.40;;;;;;5035575;28;20411;-78
2023/08/25 09:56:43;;;;;;;9.60;8.80;;;21.60;47.50;;;;;;5035900;28;20487;-77
2023/08/25 09:59:11;;;;;;;8.33;7.90;;;21.70;48.30;;;;;;5034820;28;20456;-77
2023/08/25 10:01:43;;;;;;;8.30;7.80;;;21.80;49.50;;;;;;5036579;28;20909;-79
2023/08/25 10:04:08;;;;;;;8.67;8.07;;;21.90;49.90;;;;;;5037837;28;20941;-79
2023/08/25 10:06:36;;;;;;;8.83;8.17;;;22.00;47.00;;;;;;5037529;28;20450;-78
2023/08/25 10:09:03;;;;;;;8.73;8.30;;;22.00;47.60;;;;;;5034955;28;20657;-77
2023/08/25 10:11:40;;;;;;;8.60;8.20;;;22.10;46.30;;;;;;5035543;28;20408;-78
2023/08/25 10:14:07;;;;;;;8.70;8.00;;;22.10;46.20;;;;;;5037281;28;20407;-78
2023/08/25 10:16:38;;;;;;;8.70;8.20;;;22.20;47.60;;;;;;5037476;28;20432;-79
2023/08/25 10:19:05;;;;;;;9.13;8.60;;;22.20;45.60;;;;;;5037392;28;20423;-79
2023/08/25 10:21:31;;;;;;;8.63;8.23;;;22.20;45.40;;;;;;5037097;28;20422;-78
2023/08/25 10:24:00;;;;;;;8.70;8.10;;;22.20;44.50;;;;;;5037138;28;20418;-79
2023/08/25 10:26:26;;;;;;;9.17;8.67;;;22.30;43.40;;;;;;5037030;28;20443;-78
2023/08/25 10:28:52;;;;;;;7.47;7.10;;;22.40;43.60;;;;;;5036201;28;20483;-78
2023/08/25 10:31:19;;;;;;;8.70;8.30;;;22.40;44.60;;;;;;5036809;28;20411;-78
2023/08/25 10:33:46;;;;;;;9.03;8.60;;;22.50;44.20;;;;;;5037274;28;20407;-78
2023/08/25 10:36:15;;;;;;;9.27;8.67;;;22.50;43.70;;;;;;5037071;28;20427;-79
2023/08/25 10:38:43;;;;;;;9.63;8.93;;;22.50;43.60;;;;;;5037047;28;20788;-78
2023/08/25 10:41:17;;;;;;;8.40;7.90;;;22.60;44.10;;;;;;5037081;28;20434;-78
2023/08/25 10:43:54;;;;;;;9.00;8.60;;;22.60;43.70;;;;;;5037222;28;20423;-78
2023/08/25 10:46:22;;;;;;;8.20;7.83;;;22.60;42.60;;;;;;5038183;28;20446;-78
2023/08/25 10:49:00;;;;;;;9.17;8.73;;;22.60;42.60;;;;;;5039113;28;20463;-78
2023/08/25 10:51:27;;;;;;;8.30;7.90;;;22.70;42.70;;;;;;5040255;28;20414;-78
2023/08/25 10:53:53;;;;;;;8.30;7.80;;;22.70;42.80;;;;;;5038927;28;20432;-78
2023/08/25 10:56:21;;;;;;;8.57;8.07;;;22.70;44.10;;;;;;5036476;28;20972;-78
2023/08/25 10:59:07;;;;;;;9.07;8.60;;;22.70;43.80;;;;;;5035534;28;20730;-78
2023/08/25 11:01:38;;;;;;;8.63;8.13;;;22.80;43.70;;;;;;5036930;28;20410;-78
2023/08/25 11:04:12;;;;;;;9.23;8.73;;;22.80;42.70;;;;;;5036283;28;20427;-78
2023/08/25 11:06:44;;;;;;;10.17;9.57;;;22.80;40.90;;;;;;5036636;28;20435;-79
2023/08/25 11:09:32;;;;;;;8.63;8.33;;;22.90;41.70;;;;;;5036916;28;20470;-78
2023/08/25 11:12:06;;;;;;;9.30;8.90;;;23.00;40.60;;;;;;5036596;28;20486;-78
2023/08/25 11:14:39;;;;;;;10.63;10.07;;;23.00;40.00;;;;;;5036659;28;20422;-78
2023/08/25 11:17:07;;;;;;;9.80;9.30;;;23.10;39.00;;;;;;5036931;28;20455;-78
2023/08/25 11:19:36;;;;;;;10.87;10.27;;;23.20;39.10;;;;;;5036587;28;20506;-78
2023/08/25 11:22:20;;;;;;;10.50;10.10;;;23.20;38.50;;;;;;5036655;28;20442;-78
2023/08/25 11:24:46;;;;;;;10.33;9.63;;;23.30;38.90;;;;;;5037665;28;20457;-78
2023/08/25 11:27:14;;;;;;;10.43;10.00;;;23.20;38.30;;;;;;5036993;28;20435;-78
2023/08/25 11:29:44;;;;;;;9.60;9.10;;;23.30;38.70;;;;;;5036384;28;20196;-78
2023/08/25 11:32:11;;;;;;;10.37;9.77;;;23.30;38.80;;;;;;5038857;28;20439;-79
2023/08/25 11:34:37;;;;;;;10.30;9.80;;;23.40;38.90;;;;;;5039857;28;20438;-79
2023/08/25 11:37:03;;;;;;;9.30;8.83;;;23.40;39.00;;;;;;5037857;28;20439;-79
2023/08/25 11:39:28;;;;;;;9.70;9.30;;;23.50;39.20;;;;;;5039586;28;20411;-81
2023/08/25 11:41:55;;;;;;;9.60;9.00;;;23.60;39.40;;;;;;5038582;28;20248;-80
2023/08/25 11:44:23;;;;;;;10.23;9.63;;;23.60;38.80;;;;;;5039193;28;20199;-79
2023/08/25 11:46:49;;;;;;;9.60;9.10;;;23.70;39.00;;;;;;5039419;28;20438;-78
2023/08/25 11:49:16;;;;;;;9.50;9.00;;;23.70;39.10;;;;;;5038182;28;20950;-82
2023/08/25 11:51:43;;;;;;;9.90;9.50;;;23.70;38.60;;;;;;5041344;28;20183;-79
2023/08/25 11:54:10;;;;;;;10.63;9.93;;;23.70;38.40;;;;;;5042422;28;20838;-79
2023/08/25 11:56:35;;;;;;;9.40;8.90;;;23.80;38.50;;;;;;5042711;28;20461;-80
2023/08/25 11:59:02;;;;;;;10.00;9.13;;;23.80;38.50;;;;;;5045866;28;20415;-79
2023/08/25 12:01:32;;;;;;;9.80;9.20;;;23.80;38.50;;;;;;5045857;28;20195;-79
2023/08/25 12:03:58;;;;;;;9.50;9.00;;;23.90;38.60;;;;;;5043041;28;20407;-79
2023/08/25 12:06:25;;;;;;;9.13;8.73;;;24.00;38.30;;;;;;5037952;28;20436;-79
2023/08/25 12:08:50;;;;;;;9.30;8.80;;;24.10;38.20;;;;;;5037256;28;20593;-80
2023/08/25 12:11:16;;;;;;;9.83;9.10;;;24.20;37.40;;;;;;5036939;28;20447;-79
2023/08/25 12:13:43;;;;;;;10.33;9.63;;;24.30;37.00;;;;;;5038138;28;20177;-79
2023/08/25 12:16:13;;;;;;;10.63;10.13;;;24.30;36.50;;;;;;5037286;28;20530;-79
2023/08/25 12:18:39;;;;;;;9.90;9.30;;;24.30;36.50;;;;;;5037272;28;20430;-79
2023/08/25 12:21:06;;;;;;;9.60;9.00;;;24.40;36.20;;;;;;5032588;28;20447;-80
2023/08/25 12:23:39;;;;;;;9.10;8.70;;;24.40;35.90;;;;;;5024087;28;20415;-78
2023/08/25 12:26:11;;;;;;;8.77;8.27;;;24.50;35.80;;;;;;5035416;28;20435;-79
2023/08/25 12:28:38;;;;;;;10.03;9.33;;;24.50;35.10;;;;;;5036358;28;20840;-78
2023/08/25 12:31:04;;;;;;;10.50;9.90;;;24.50;34.20;;;;;;5034370;28;20482;-78
2023/08/25 12:33:30;;;;;;;9.77;9.27;;;24.60;33.90;;;;;;5035993;28;20419;-79
2023/08/25 12:35:57;;;;;;;9.93;9.47;;;24.60;33.90;;;;;;5036623;28;20208;-79
2023/08/25 12:38:23;;;;;;;9.63;8.80;;;24.70;34.00;;;;;;5036214;28;20752;-79